Gunnison, CO

6:23 AM MDT on August 29, 2014 (GMT -0600)
Aspen-Pitkin County / Sardy Field | Change Station
CLOSE
Current Station
Airport
Location: Aspen,
Elevation: 7822 ft
Nearby Weather Stations

Elev 7822 ft 39.23 °N, 106.87 °W | Updated 30 minutes ago

Clear
Clear
44 °F
Feels Like 42 °F
N
5
Wind Variable Wind from SSW

Today
High -- | Low -- °F
--% Chance of Precip.
Yesterday
High -- | Low -- °F
Precip. -- in
6:34 AM 7:42 PM
Waxing Crescent, 14% visible
Pressure 30.07 in
Visibility 10.0 miles
Clouds Clear
Windchill 42 °F
Dew Point 40 °F
Humidity 85%
Rainfall 0.00 in
Snow Depth Not available.
UV 0 out of 12
Pollen 9.70 out of 12
Air Quality Not available.
Flu Activity Not available.
METAR KASE 291153Z AUTO 20004KT 10SM CLR 07/04 A3033 RMK AO2 SLP181 70003 T00670044 10078 20050 53001

More Conditions Fewer Conditions

Pressure 30.07 in
Visibility 10.0 miles
Clouds Clear
Windchill 42 °F
Dew Point 40 °F
Humidity 85%
Rainfall 0.00 in
Snow Depth Not available.
UV 0 out of 12
Pollen 9.70 out of 12
Air Quality Not available.
Flu Activity Not available.
METAR KASE 291153Z AUTO 20004KT 10SM CLR 07/04 A3033 RMK AO2 SLP181 70003 T00670044 10078 20050 53001

More Conditions Fewer Conditions

10-Day Weather Forecast

Almanac

Astronomy

Aug. 29, 2014 Rise Set
Actual Time 6:34 AM MDT 7:42 PM MDT
Civil Twilight 6:07 AM MDT 8:09 PM MDT
Nautical Twilight 5:34 AM MDT 8:41 PM MDT
Astronomical Twilight 5:00 AM MDT 9:15 PM MDT
Moon 10:23 AM MDT 9:45 PM MDT
Length of Visible Light 14h 02m
Length of Day
13h 07m
Tomorrow will be 2m 23s shorter.
Waxing Crescent, 14% of the Moon is Illuminated
Today
Waxing Crescent
Sep 2
First Quarter
Sep 8
Full
Sep 15
Last Quarter
Sep 24
New

Today's Extremes

State Highs State Lows

Community

WunderPhotos

Upload Photos

1,748,218 photos uploaded!

Nearby

Snow Depth

Station Depth Elevation
Butte 0 in 10160 ft
Park Cone 0 in 9600 ft
Cochetopa Pass 0 in 10020 ft
Schofield Pass 0 in 10700 ft
Porphyry Creek 0 in 10760 ft

Earthquake Activity

City Distance Mag. Time & Date
No recent earthquake activity has been reported nearby.
Minimum magnitude displayed is 2.5.

Coastal Water Temperatures

Place Temperature
No Stations Reporting

Nearby Weather Stations